Terminal Aerodrome Forecast
Issued by NWS

Home | Current Version | Previous Version | Text Only | Print | Product List | Glossary On
Versions: 1 2 3 4 5 6 7 8 9 10 11 12 13 14 15 16 17 18 19 20 21
000
FTUS43 KAPX 050059 AAA
TAFMBL
TAF AMD
KMBL 050059Z 0501/0524 30012KT P6SM VCSH BKN035
      TEMPO 0501/0503 3SM -SHSN BKN025
     FM050300 33010KT P6SM VCSH BKN035
     FM051600 29010KT P6SM VCSH BKN035
      AMD LTD TO CLD VIS AND WIND=

USA.gov is the U.S. government's official web portal to all federal, state and local government web resources and services.